createdAt,value
2018-09-02T00:01:19.907Z,94598.99
2018-09-02T00:03:50.274Z,94592.09
2018-09-02T00:06:19.654Z,94595.09
2018-09-02T00:08:49.593Z,94592.46
2018-09-02T00:11:19.714Z,94590.42
2018-09-02T00:13:49.164Z,94588.14
2018-09-02T00:16:18.574Z,94594.79
2018-09-02T00:18:47.876Z,94602.03
2018-09-02T00:21:17.893Z,94599.19
2018-09-02T00:23:47.362Z,94597.60
2018-09-02T00:26:16.877Z,94599.08
2018-09-02T00:28:47.786Z,94596.46
2018-09-02T00:31:17.360Z,94592.03
2018-09-02T00:33:47.024Z,94587.95
2018-09-02T00:36:16.277Z,94587.23
2018-09-02T00:38:45.810Z,94582.58
2018-09-02T00:41:15.192Z,94581.84
2018-09-02T00:43:45.957Z,94583.66
2018-09-02T00:46:16.332Z,94590.30
2018-09-02T00:48:45.715Z,94588.68
2018-09-02T00:51:15.136Z,94588.91
2018-09-02T00:53:44.925Z,94587.23
2018-09-02T00:56:14.353Z,94583.38
2018-09-02T00:58:43.880Z,94578.66
2018-09-02T01:01:13.711Z,94580.53
2018-09-02T01:03:43.147Z,94582.23
2018-09-02T01:06:13.928Z,94577.49
2018-09-02T01:08:43.811Z,94571.61
2018-09-02T01:11:14.493Z,94573.14
2018-09-02T01:13:44.319Z,94571.61
2018-09-02T01:16:13.781Z,94572.41
2018-09-02T01:18:43.258Z,94575.25
2018-09-02T01:21:12.966Z,94579.63
2018-09-02T01:23:42.275Z,94574.73
2018-09-02T01:26:12.126Z,94576.61
2018-09-02T01:28:41.502Z,94581.44
2018-09-02T01:31:12.613Z,94586.58
2018-09-02T01:33:42.621Z,94579.59
2018-09-02T01:36:11.954Z,94584.59
2018-09-02T01:38:41.412Z,94588.16
2018-09-02T01:41:12.068Z,94590.83
2018-09-02T01:43:41.394Z,94590.63
2018-09-02T01:46:11.847Z,94594.63
2018-09-02T01:48:41.501Z,94588.40
2018-09-02T01:51:10.989Z,94576.98
2018-09-02T01:53:41.039Z,94576.70
2018-09-02T01:56:10.691Z,94580.62
2018-09-02T01:58:40.608Z,94571.47
2018-09-02T02:01:10.626Z,94570.91
2018-09-02T02:03:40.084Z,94570.39
2018-09-02T02:06:09.974Z,94569.99
2018-09-02T02:08:41.423Z,94568.00
2018-09-02T02:11:11.438Z,94562.61
2018-09-02T02:13:40.931Z,94565.25
2018-09-02T02:16:11.405Z,94565.45
2018-09-02T02:18:40.871Z,94567.21
2018-09-02T02:21:10.559Z,94570.67
2018-09-02T02:23:40.376Z,94571.83
2018-09-02T02:26:09.814Z,94570.45
2018-09-02T02:28:39.239Z,94561.36
2018-09-02T02:31:10.294Z,94556.42
2018-09-02T02:33:39.756Z,94550.00
2018-09-02T02:36:10.223Z,94545.52
2018-09-02T02:38:39.586Z,94546.82
2018-09-02T02:41:08.862Z,94546.14
2018-09-02T02:43:38.345Z,94540.12
2018-09-02T02:46:07.824Z,94538.08
2018-09-02T02:48:37.297Z,94542.50
2018-09-02T02:51:07.678Z,94548.09
2018-09-02T02:53:37.623Z,94550.37
2018-09-02T02:56:08.081Z,94547.84
2018-09-02T02:58:37.517Z,94548.98
2018-09-02T03:01:06.943Z,94550.14
2018-09-02T03:03:36.306Z,94551.53
2018-09-02T03:06:05.628Z,94552.38
2018-09-02T03:08:35.085Z,94552.67
2018-09-02T03:11:04.408Z,94548.75
2018-09-02T03:13:33.663Z,94545.45
2018-09-02T03:16:04.240Z,94548.23
2018-09-02T03:18:33.541Z,94548.47
2018-09-02T03:21:02.840Z,94551.45
2018-09-02T03:23:32.305Z,94548.12
2018-09-02T03:26:01.641Z,94549.77
2018-09-02T03:28:32.767Z,94544.55
2018-09-02T03:31:02.586Z,94539.09
2018-09-02T03:33:31.727Z,94531.31
2018-09-02T03:36:01.214Z,94534.67
2018-09-02T03:38:30.651Z,94528.36
2018-09-02T03:40:59.955Z,94524.19
2018-09-02T03:43:29.409Z,94527.25
2018-09-02T03:45:58.602Z,94526.41
2018-09-02T03:48:28.435Z,94533.81
2018-09-02T03:50:58.811Z,94529.16
2018-09-02T03:53:28.106Z,94540.41
2018-09-02T03:55:57.540Z,94531.26
2018-09-02T03:58:27.898Z,94528.65
2018-09-02T04:00:57.239Z,94532.05
2018-09-02T04:03:26.694Z,94538.30
2018-09-02T04:05:56.209Z,94535.41
2018-09-02T04:08:26.084Z,94544.86
2018-09-02T04:10:55.692Z,94545.02
2018-09-02T04:13:25.783Z,94550.47
2018-09-02T04:15:55.949Z,94544.86
2018-09-02T04:18:26.184Z,94550.14
2018-09-02T04:20:55.912Z,94552.98
2018-09-02T04:23:25.448Z,94551.50
2018-09-02T04:25:55.046Z,94557.52
2018-09-02T04:28:25.819Z,94551.66
2018-09-02T04:30:56.318Z,94544.47
2018-09-02T04:33:26.502Z,94538.23
2018-09-02T04:35:56.629Z,94537.44
2018-09-02T04:38:27.816Z,94537.78
2018-09-02T04:40:57.615Z,94530.97
2018-09-02T04:43:27.147Z,94518.36
2018-09-02T04:45:56.749Z,94509.73
2018-09-02T04:48:26.772Z,94509.10
2018-09-02T04:50:56.684Z,94502.80
2018-09-02T04:53:26.574Z,94502.69
2018-09-02T04:55:57.707Z,94516.76
2018-09-02T04:58:27.057Z,94521.18
2018-09-02T05:00:56.893Z,94524.65
2018-09-02T05:03:26.701Z,94528.40
2018-09-02T05:05:57.631Z,94535.31
2018-09-02T05:08:28.039Z,94536.80
2018-09-02T05:10:59.318Z,94544.23
2018-09-02T05:13:31.274Z,94534.92
2018-09-02T05:16:01.860Z,94534.80
2018-09-02T05:18:31.198Z,94537.04
2018-09-02T05:21:00.770Z,94530.06
2018-09-02T05:23:30.191Z,94517.95
2018-09-02T05:25:59.657Z,94512.69
2018-09-02T05:28:29.208Z,94525.45
2018-09-02T05:30:59.227Z,94519.61
2018-09-02T05:33:29.178Z,94528.06
2018-09-02T05:35:58.551Z,94521.87
2018-09-02T05:38:27.846Z,94507.80
2018-09-02T05:40:57.041Z,94513.81
2018-09-02T05:43:26.469Z,94527.38
2018-09-02T05:45:55.746Z,94536.40
2018-09-02T05:48:25.248Z,94538.39
2018-09-02T05:50:54.569Z,94546.39
2018-09-02T05:53:24.061Z,94556.42
2018-09-02T05:55:54.185Z,94559.33
2018-09-02T05:58:25.064Z,94558.50
2018-09-02T06:00:54.781Z,94551.63
2018-09-02T06:03:24.167Z,94547.64
2018-09-02T06:05:53.718Z,94546.61
2018-09-02T06:08:23.097Z,94554.06
2018-09-02T06:10:52.703Z,94554.34
2018-09-02T06:13:23.003Z,94552.30
2018-09-02T06:15:53.408Z,94554.47
2018-09-02T06:18:23.011Z,94551.09
2018-09-02T06:20:52.766Z,94543.44
2018-09-02T06:23:22.140Z,94541.62
2018-09-02T06:25:51.932Z,94538.27
2018-09-02T06:28:21.438Z,94540.13
2018-09-02T06:30:51.565Z,94543.31
2018-09-02T06:33:21.749Z,94541.13
2018-09-02T06:35:51.763Z,94530.38
2018-09-02T06:38:21.390Z,94536.06
2018-09-02T06:40:51.199Z,94538.47
2018-09-02T06:43:21.985Z,94533.22
2018-09-02T06:45:51.510Z,94534.84
2018-09-02T06:48:21.565Z,94541.65
2018-09-02T06:50:50.982Z,94545.63
2018-09-02T06:53:20.506Z,94549.17
2018-09-02T06:55:50.238Z,94542.01
2018-09-02T06:58:19.709Z,94537.41
2018-09-02T07:00:49.737Z,94528.78
2018-09-02T07:03:19.278Z,94538.14
2018-09-02T07:05:48.622Z,94537.06
2018-09-02T07:08:18.030Z,94532.84
2018-09-02T07:10:47.718Z,94528.23
2018-09-02T07:13:19.354Z,94527.08
2018-09-02T07:15:49.182Z,94524.98
2018-09-02T07:18:18.604Z,94530.82
2018-09-02T07:20:48.111Z,94530.78
2018-09-02T07:23:18.306Z,94536.67
2018-09-02T07:25:47.708Z,94538.73
2018-09-02T07:28:17.464Z,94530.98
2018-09-02T07:30:48.513Z,94527.97
2018-09-02T07:33:18.344Z,94519.73
2018-09-02T07:35:48.027Z,94516.61
2018-09-02T07:38:17.492Z,94509.62
2018-09-02T07:40:47.414Z,94513.42
2018-09-02T07:43:16.802Z,94511.19
2018-09-02T07:45:47.357Z,94520.51
2018-09-02T07:48:17.633Z,94522.01
2018-09-02T07:50:48.945Z,94529.05
2018-09-02T07:53:18.783Z,94534.15
2018-09-02T07:55:48.293Z,94530.91
2018-09-02T07:58:17.965Z,94522.75
2018-09-02T08:00:47.611Z,94526.31
2018-09-02T08:03:17.293Z,94524.84
2018-09-02T08:05:46.757Z,94526.58
2018-09-02T08:08:16.122Z,94526.65
2018-09-02T08:10:46.448Z,94534.66
2018-09-02T08:13:17.041Z,94531.41
2018-09-02T08:15:46.739Z,94537.56
2018-09-02T08:18:16.650Z,94539.00
2018-09-02T08:20:46.956Z,94546.59
2018-09-02T08:23:18.511Z,94537.56
2018-09-02T08:25:48.555Z,94529.25
2018-09-02T08:28:18.762Z,94525.59
2018-09-02T08:30:49.598Z,94534.02
2018-09-02T08:33:19.119Z,94530.91
2018-09-02T08:35:50.347Z,94529.94
2018-09-02T08:38:21.766Z,94531.67
2018-09-02T08:40:52.691Z,94533.95
2018-09-02T08:43:23.145Z,94535.63
2018-09-02T08:45:53.368Z,94530.42
2018-09-02T08:48:23.385Z,94530.30
2018-09-02T08:50:53.350Z,94529.05
2018-09-02T08:53:23.851Z,94522.89
2018-09-02T08:55:54.529Z,94517.73
2018-09-02T08:58:24.836Z,94521.39
2018-09-02T09:00:54.437Z,94520.97
2018-09-02T09:03:24.013Z,94523.98
2018-09-02T09:05:53.580Z,94517.27
2018-09-02T09:08:24.406Z,94519.59
2018-09-02T09:10:55.750Z,94522.77
2018-09-02T09:13:26.213Z,94528.77
2018-09-02T09:15:56.202Z,94525.84
2018-09-02T09:18:25.931Z,94515.94
2018-09-02T09:20:55.832Z,94519.36
2018-09-02T09:23:24.943Z,94512.21
2018-09-02T09:25:55.185Z,94522.03
2018-09-02T09:28:24.653Z,94515.41
2018-09-02T09:30:54.090Z,94525.66
2018-09-02T09:33:23.561Z,94530.80
2018-09-02T09:35:53.576Z,94531.50
2018-09-02T09:38:23.188Z,94531.46
2018-09-02T09:40:52.892Z,94530.91
2018-09-02T09:43:23.319Z,94531.15
2018-09-02T09:45:52.701Z,94532.53
2018-09-02T09:48:22.247Z,94529.98
2018-09-02T09:50:51.739Z,94536.26
2018-09-02T09:53:21.020Z,94540.33
2018-09-02T09:55:50.698Z,94532.80
2018-09-02T09:58:30.621Z,94535.67
2018-09-02T10:01:01.631Z,94525.80
2018-09-02T10:03:31.167Z,94524.45
2018-09-02T10:06:01.980Z,94526.42
2018-09-02T10:08:31.894Z,94528.08
2018-09-02T10:11:01.645Z,94527.97
2018-09-02T10:13:31.621Z,94520.50
2018-09-02T10:16:00.879Z,94518.03
2018-09-02T10:18:30.423Z,94519.21
2018-09-02T10:20:59.915Z,94518.14
2018-09-02T10:23:29.388Z,94516.69
2018-09-02T10:25:59.237Z,94527.38
2018-09-02T10:28:28.986Z,94513.97
2018-09-02T10:30:59.273Z,94514.93
2018-09-02T10:33:28.733Z,94509.80
2018-09-02T10:35:58.597Z,94508.09
2018-09-02T10:38:28.943Z,94509.24
2018-09-02T10:40:58.900Z,94506.83
2018-09-02T10:43:28.426Z,94507.03
2018-09-02T10:45:58.166Z,94505.17
2018-09-02T10:48:28.482Z,94504.52
2018-09-02T10:50:58.704Z,94501.27
2018-09-02T10:53:28.199Z,94497.69
2018-09-02T10:55:58.749Z,94500.03
2018-09-02T10:58:28.578Z,94503.83
2018-09-02T11:00:58.685Z,94505.83
2018-09-02T11:03:28.015Z,94494.16
2018-09-02T11:05:57.560Z,94491.52
2018-09-02T11:08:27.178Z,94498.73
2018-09-02T11:10:56.894Z,94492.12
2018-09-02T11:13:27.450Z,94494.02
2018-09-02T11:15:57.861Z,94495.45
2018-09-02T11:18:29.653Z,94486.09
2018-09-02T11:20:59.645Z,94485.44
2018-09-02T11:23:29.091Z,94478.92
2018-09-02T11:25:58.501Z,94479.20
2018-09-02T11:28:30.676Z,94481.45
2018-09-02T11:31:00.236Z,94483.23
2018-09-02T11:33:29.865Z,94474.91
2018-09-02T11:35:59.669Z,94472.31
2018-09-02T11:38:29.859Z,94466.71
2018-09-02T11:41:00.398Z,94474.03
2018-09-02T11:43:30.737Z,94474.59
2018-09-02T11:46:00.576Z,94468.25
2018-09-02T11:48:30.010Z,94473.57
2018-09-02T11:50:59.608Z,94470.48
2018-09-02T11:53:29.079Z,94465.83
2018-09-02T11:55:58.376Z,94467.66
2018-09-02T11:58:28.259Z,94453.48
2018-09-02T12:00:57.654Z,94461.14
2018-09-02T12:03:27.097Z,94463.25
2018-09-02T12:05:56.391Z,94462.61
2018-09-02T12:08:25.723Z,94449.80
2018-09-02T12:10:55.069Z,94445.13
2018-09-02T12:13:24.211Z,94441.97
2018-09-02T12:15:53.780Z,94435.63
2018-09-02T12:18:23.741Z,94430.58
2018-09-02T12:20:53.301Z,94435.02
2018-09-02T12:23:22.655Z,94427.94
2018-09-02T12:25:52.347Z,94417.98
2018-09-02T12:28:22.016Z,94419.60
2018-09-02T12:30:54.239Z,94411.71
2018-09-02T12:33:23.576Z,94421.97
2018-09-02T12:35:53.033Z,94404.27
2018-09-02T12:38:22.710Z,94405.55
2018-09-02T12:40:52.327Z,94411.71
2018-09-02T12:43:22.082Z,94404.31
2018-09-02T12:45:51.727Z,94407.95
2018-09-02T12:48:21.088Z,94406.91
2018-09-02T12:50:50.495Z,94408.42
2018-09-02T12:53:19.959Z,94406.91
2018-09-02T12:55:50.882Z,94403.97
2018-09-02T12:58:21.723Z,94399.19
2018-09-02T13:00:51.981Z,94397.63
2018-09-02T13:03:22.599Z,94395.53
2018-09-02T13:05:51.938Z,94388.16
2018-09-02T13:08:21.333Z,94392.63
2018-09-02T13:10:50.985Z,94396.40
2018-09-02T13:13:20.732Z,94397.48
2018-09-02T13:15:50.630Z,94394.30
2018-09-02T13:18:20.077Z,94402.73
2018-09-02T13:20:49.817Z,94401.95
2018-09-02T13:23:19.300Z,94399.03
2018-09-02T13:25:48.812Z,94402.45
2018-09-02T13:28:18.214Z,94400.88
2018-09-02T13:30:48.834Z,94402.20
2018-09-02T13:33:18.455Z,94404.27
2018-09-02T13:35:48.000Z,94397.68
2018-09-02T13:38:17.928Z,94392.94
2018-09-02T13:40:47.725Z,94394.20
2018-09-02T13:43:17.212Z,94383.84
2018-09-02T13:45:46.609Z,94388.12
2018-09-02T13:48:16.347Z,94382.34
2018-09-02T13:50:46.073Z,94376.78
2018-09-02T13:53:15.939Z,94367.05
2018-09-02T13:55:45.267Z,94369.93
2018-09-02T13:58:14.765Z,94373.96
2018-09-02T14:00:44.064Z,94383.22
2018-09-02T14:03:13.616Z,94385.03
2018-09-02T14:05:43.183Z,94377.08
2018-09-02T14:08:12.828Z,94385.07
2018-09-02T14:10:42.181Z,94391.31
2018-09-02T14:13:11.702Z,94388.72
2018-09-02T14:15:45.549Z,94386.67
2018-09-02T14:18:15.022Z,94380.35
2018-09-02T14:20:44.834Z,94376.64
2018-09-02T14:23:15.042Z,94373.70
2018-09-02T14:25:44.880Z,94371.37
2018-09-02T14:28:14.748Z,94379.03
2018-09-02T14:30:44.395Z,94375.62
2018-09-02T14:33:16.062Z,94368.73
2018-09-02T14:35:45.808Z,94380.59
2018-09-02T14:38:16.119Z,94378.53
2018-09-02T14:40:46.200Z,94364.28
2018-09-02T14:43:16.744Z,94358.46
2018-09-02T14:45:46.437Z,94351.03
2018-09-02T14:48:15.921Z,94354.61
2018-09-02T14:50:45.706Z,94341.81
2018-09-02T14:53:15.256Z,94345.77
2018-09-02T14:55:45.180Z,94352.84
2018-09-02T14:58:15.095Z,94347.34
2018-09-02T15:00:44.658Z,94352.41
2018-09-02T15:03:14.122Z,94355.07
2018-09-02T15:05:43.593Z,94352.17
2018-09-02T15:08:12.914Z,94353.72
2018-09-02T15:10:42.552Z,94352.93
2018-09-02T15:13:11.910Z,94342.69
2018-09-02T15:15:41.405Z,94343.48
2018-09-02T15:18:10.738Z,94349.77
2018-09-02T15:20:40.071Z,94356.88
2018-09-02T15:23:09.970Z,94351.64
2018-09-02T15:25:39.635Z,94351.64
2018-09-02T15:28:08.991Z,94353.23
2018-09-02T15:30:39.182Z,94344.53
2018-09-02T15:33:08.624Z,94343.66
2018-09-02T15:35:39.017Z,94342.65
2018-09-02T15:38:08.834Z,94342.03
2018-09-02T15:40:38.209Z,94338.66
2018-09-02T15:43:07.678Z,94338.43
2018-09-02T15:45:37.072Z,94339.53
2018-09-02T15:48:06.816Z,94344.30
2018-09-02T15:50:36.363Z,94342.19
2018-09-02T15:53:05.976Z,94341.64
2018-09-02T15:55:35.417Z,94345.62
2018-09-02T15:58:04.891Z,94339.55
2018-09-02T16:00:34.189Z,94350.61
2018-09-02T16:03:03.663Z,94352.17
2018-09-02T16:05:33.219Z,94348.23
2018-09-02T16:08:03.197Z,94351.61
2018-09-02T16:10:32.670Z,94352.14
2018-09-02T16:13:02.146Z,94356.59
2018-09-02T16:15:31.841Z,94352.11
2018-09-02T16:18:01.828Z,94350.02
2018-09-02T16:20:34.411Z,94346.87
2018-09-02T16:23:04.216Z,94348.17
2018-09-02T16:25:34.352Z,94345.29
2018-09-02T16:28:04.160Z,94337.91
2018-09-02T16:30:33.788Z,94343.92
2018-09-02T16:33:03.183Z,94335.45
2018-09-02T16:35:32.530Z,94337.06
2018-09-02T16:38:02.803Z,94332.80
2018-09-02T16:40:33.210Z,94330.98
2018-09-02T16:43:03.969Z,94327.78
2018-09-02T16:45:33.374Z,94332.76
2018-09-02T16:48:02.843Z,94341.70
2018-09-02T16:50:32.219Z,94343.52
2018-09-02T16:53:01.698Z,94344.56
2018-09-02T16:55:31.214Z,94336.13
2018-09-02T16:58:00.710Z,94332.97
2018-09-02T17:00:30.307Z,94340.28
2018-09-02T17:03:00.571Z,94337.58
2018-09-02T17:05:30.956Z,94335.77
2018-09-02T17:08:00.704Z,94337.06
2018-09-02T17:10:41.867Z,94335.23
2018-09-02T17:13:11.928Z,94334.08
2018-09-02T17:15:43.233Z,94335.41
2018-09-02T17:18:16.189Z,94335.66
2018-09-02T17:20:48.066Z,94333.55
2018-09-02T17:23:17.830Z,94339.28
2018-09-02T17:25:48.658Z,94333.54
2018-09-02T17:28:21.302Z,94332.45
2018-09-02T17:30:50.902Z,94331.91
2018-09-02T17:33:20.715Z,94333.13
2018-09-02T17:35:51.547Z,94337.61
2018-09-02T17:38:21.507Z,94336.30
2018-09-02T17:40:52.380Z,94336.64
2018-09-02T17:43:22.568Z,94341.75
2018-09-02T17:45:53.474Z,94333.06
2018-09-02T17:48:26.518Z,94321.78
2018-09-02T17:50:59.390Z,94328.36
2018-09-02T17:53:30.444Z,94339.08
2018-09-02T17:56:00.448Z,94344.57
2018-09-02T17:58:31.411Z,94349.55
2018-09-02T18:01:03.711Z,94355.80
2018-09-02T18:03:34.604Z,94357.06
2018-09-02T18:06:06.143Z,94368.86
2018-09-02T18:08:36.171Z,94358.07
2018-09-02T18:11:07.563Z,94362.03
2018-09-02T18:13:38.989Z,94363.26
2018-09-02T18:16:09.990Z,94359.66
2018-09-02T18:18:40.497Z,94366.98
2018-09-02T18:21:10.305Z,94367.23
2018-09-02T18:23:39.863Z,94369.78
2018-09-02T18:26:09.610Z,94372.12
2018-09-02T18:28:42.387Z,94359.54
2018-09-02T18:31:12.001Z,94358.78
2018-09-02T18:33:41.540Z,94358.66
2018-09-02T18:36:11.170Z,94359.30
2018-09-02T18:38:42.826Z,94365.58
2018-09-02T18:41:12.836Z,94365.79
2018-09-02T18:43:42.374Z,94363.66
2018-09-02T18:46:12.507Z,94369.39
2018-09-02T18:48:43.650Z,94366.55
2018-09-02T18:51:13.960Z,94360.00
2018-09-02T18:53:45.865Z,94358.33
2018-09-02T18:56:15.806Z,94352.14
2018-09-02T18:58:46.616Z,94358.75
2018-09-02T19:01:16.901Z,94356.95
2018-09-02T19:03:46.632Z,94350.45
2018-09-02T19:06:18.256Z,94343.97
2018-09-02T19:08:48.708Z,94344.81
2018-09-02T19:11:18.640Z,94348.19
2018-09-02T19:13:48.168Z,94355.25
2018-09-02T19:16:18.566Z,94351.63
2018-09-02T19:18:48.359Z,94360.22
2018-09-02T19:21:19.847Z,94371.48
2018-09-02T19:23:51.146Z,94383.80
2018-09-02T19:26:24.239Z,94386.37
2018-09-02T19:28:54.379Z,94379.61
2018-09-02T19:31:24.066Z,94385.06
2018-09-02T19:33:53.647Z,94389.47
2018-09-02T19:36:23.249Z,94384.08
2018-09-02T19:38:53.097Z,94385.91
2018-09-02T19:41:23.031Z,94383.48
2018-09-02T19:43:55.209Z,94378.53
2018-09-02T19:46:25.084Z,94367.58
2018-09-02T19:48:55.311Z,94362.86
2018-09-02T19:51:25.116Z,94358.69
2018-09-02T19:53:55.640Z,94357.30
2018-09-02T19:56:25.284Z,94355.37
2018-09-02T19:58:55.431Z,94348.55
2018-09-02T20:01:27.640Z,94351.88
2018-09-02T20:03:59.519Z,94349.86
2018-09-02T20:06:29.557Z,94364.42
2018-09-02T20:09:03.596Z,94369.00
2018-09-02T20:11:33.779Z,94372.34
2018-09-02T20:14:06.777Z,94369.17
2018-09-02T20:16:36.717Z,94386.98
2018-09-02T20:19:06.542Z,94389.23
2018-09-02T20:21:37.118Z,94394.59
2018-09-02T20:24:06.728Z,94386.78
2018-09-02T20:26:37.070Z,94386.78
2018-09-02T20:29:06.658Z,94374.25
2018-09-02T20:31:36.677Z,94370.05
2018-09-02T20:34:08.738Z,94372.06
2018-09-02T20:36:38.346Z,94378.29
2018-09-02T20:39:09.885Z,94374.16
2018-09-02T20:41:39.815Z,94383.41
2018-09-02T20:44:09.965Z,94388.40
2018-09-02T20:46:39.820Z,94390.42
2018-09-02T20:49:09.393Z,94384.23
2018-09-02T20:51:39.439Z,94386.97
2018-09-02T20:54:10.086Z,94374.78
2018-09-02T20:56:39.621Z,94375.66
2018-09-02T20:59:09.644Z,94375.66
2018-09-02T21:01:39.190Z,94373.05
2018-09-02T21:04:09.080Z,94361.78
2018-09-02T21:06:38.741Z,94350.02
2018-09-02T21:09:12.889Z,94345.73
2018-09-02T21:11:42.850Z,94343.78
2018-09-02T21:14:12.401Z,94334.55
2018-09-02T21:16:42.575Z,94325.42
2018-09-02T21:19:13.258Z,94330.75
2018-09-02T21:21:42.946Z,94313.69
2018-09-02T21:24:12.571Z,94302.44
2018-09-02T21:26:42.300Z,94286.70
2018-09-02T21:29:11.727Z,94279.38
2018-09-02T21:31:42.336Z,94268.44
2018-09-02T21:34:12.180Z,94257.14
2018-09-02T21:36:45.549Z,94251.16
2018-09-02T21:39:15.261Z,94248.86
2018-09-02T21:41:44.754Z,94234.39
2018-09-02T21:44:14.423Z,94229.72
2018-09-02T21:46:43.866Z,94228.50
2018-09-02T21:49:13.371Z,94220.98
2018-09-02T21:51:44.027Z,94201.92
2018-09-02T21:54:13.623Z,94192.40
2018-09-02T21:56:43.909Z,94192.08
2018-09-02T21:59:14.972Z,94198.34
2018-09-02T22:01:45.024Z,94200.23
2018-09-02T22:04:15.717Z,94207.34
2018-09-02T22:06:45.335Z,94214.19
2018-09-02T22:09:16.382Z,94214.15
2018-09-02T22:11:47.114Z,94228.25
2018-09-02T22:14:16.877Z,94238.12
2018-09-02T22:16:46.572Z,94238.17
2018-09-02T22:19:16.139Z,94244.94
2018-09-02T22:21:46.047Z,94254.95
2018-09-02T22:24:16.208Z,94259.58
2018-09-02T22:26:45.724Z,94265.73
2018-09-02T22:29:14.983Z,94289.53
2018-09-02T22:31:44.367Z,94299.53
2018-09-02T22:34:14.118Z,94316.78
2018-09-02T22:36:45.053Z,94319.92
2018-09-02T22:39:14.648Z,94310.08
2018-09-02T22:41:44.861Z,94306.24
2018-09-02T22:44:14.267Z,94310.20
2018-09-02T22:46:43.873Z,94303.67
2018-09-02T22:49:13.897Z,94301.02
2018-09-02T22:51:43.599Z,94305.27
2018-09-02T22:54:12.960Z,94302.59
2018-09-02T22:56:42.417Z,94304.51
2018-09-02T22:59:12.121Z,94301.95
2018-09-02T23:01:41.469Z,94290.88
2018-09-02T23:04:10.911Z,94296.72
2018-09-02T23:06:42.940Z,94291.09
2018-09-02T23:09:12.727Z,94288.83
2018-09-02T23:11:42.925Z,94282.34
2018-09-02T23:14:12.045Z,94270.48
2018-09-02T23:16:41.410Z,94273.03
2018-09-02T23:19:11.157Z,94288.95
2018-09-02T23:21:40.950Z,94285.94
2018-09-02T23:24:10.332Z,94280.36
2018-09-02T23:26:40.272Z,94279.29
2018-09-02T23:29:10.858Z,94273.55
2018-09-02T23:31:41.430Z,94272.00
2018-09-02T23:34:11.005Z,94266.56
2018-09-02T23:36:40.369Z,94272.52
2018-09-02T23:39:12.427Z,94274.50
2018-09-02T23:41:42.011Z,94274.41
2018-09-02T23:44:11.264Z,94278.14
2018-09-02T23:46:41.232Z,94281.91
2018-09-02T23:49:11.045Z,94283.97
2018-09-02T23:51:41.678Z,94279.48
2018-09-02T23:54:10.853Z,94279.80
2018-09-02T23:56:40.270Z,94278.73
2018-09-02T23:59:09.696Z,94267.72
